sensor_id;sensor_type;location;lat;lon;timestamp;P1;durP1;ratioP1;P2;durP2;ratioP2
35975;SDS011;22055;0.000;0.000;2022-10-31T00:04:37;2.13;;;2.03;;
35975;SDS011;22055;0.000;0.000;2022-10-31T00:07:16;2.60;;;2.20;;
35975;SDS011;22055;0.000;0.000;2022-10-31T00:13:01;1.80;;;1.58;;
35975;SDS011;22055;0.000;0.000;2022-10-31T00:15:32;2.70;;;2.50;;
35975;SDS011;22055;0.000;0.000;2022-10-31T00:18:10;3.20;;;2.95;;
35975;SDS011;22055;0.000;0.000;2022-10-31T00:24:15;2.50;;;2.30;;
35975;SDS011;22055;0.000;0.000;2022-10-31T00:26:49;3.15;;;2.65;;
35975;SDS011;22055;0.000;0.000;2022-10-31T00:29:23;2.15;;;1.90;;
35975;SDS011;22055;0.000;0.000;2022-10-31T00:32:10;3.25;;;3.05;;
35975;SDS011;22055;0.000;0.000;2022-10-31T00:34:42;2.55;;;2.35;;
35975;SDS011;22055;0.000;0.000;2022-10-31T00:40:06;2.65;;;2.45;;
35975;SDS011;22055;0.000;0.000;2022-10-31T00:42:36;2.15;;;1.95;;
35975;SDS011;22055;0.000;0.000;2022-10-31T00:45:05;2.80;;;2.60;;
35975;SDS011;22055;0.000;0.000;2022-10-31T00:47:38;2.67;;;2.47;;
35975;SDS011;22055;0.000;0.000;2022-10-31T00:50:09;2.50;;;2.33;;
35975;SDS011;22055;0.000;0.000;2022-10-31T00:52:47;3.05;;;2.85;;
35975;SDS011;22055;0.000;0.000;2022-10-31T00:55:16;3.38;;;3.08;;
35975;SDS011;22055;0.000;0.000;2022-10-31T00:57:49;2.08;;;1.98;;
35975;SDS011;22055;0.000;0.000;2022-10-31T01:00:17;2.83;;;2.63;;
35975;SDS011;22055;0.000;0.000;2022-10-31T01:02:47;2.85;;;2.65;;
35975;SDS011;22055;0.000;0.000;2022-10-31T01:05:19;2.40;;;2.30;;
35975;SDS011;22055;0.000;0.000;2022-10-31T01:11:03;3.80;;;3.50;;
35975;SDS011;22055;0.000;0.000;2022-10-31T01:13:37;2.67;;;2.47;;
35975;SDS011;22055;0.000;0.000;2022-10-31T01:16:07;2.92;;;2.72;;
35975;SDS011;22055;0.000;0.000;2022-10-31T01:21:47;2.65;;;2.55;;
35975;SDS011;22055;0.000;0.000;2022-10-31T01:24:22;2.50;;;2.40;;
35975;SDS011;22055;0.000;0.000;2022-10-31T01:33:19;1.92;;;1.60;;
35975;SDS011;22055;0.000;0.000;2022-10-31T01:35:51;1.42;;;1.33;;
35975;SDS011;22055;0.000;0.000;2022-10-31T01:38:39;2.35;;;2.25;;
35975;SDS011;22055;0.000;0.000;2022-10-31T01:41:10;2.45;;;2.25;;
35975;SDS011;22055;0.000;0.000;2022-10-31T01:46:12;2.45;;;2.25;;
35975;SDS011;22055;0.000;0.000;2022-10-31T01:48:41;3.53;;;2.40;;
35975;SDS011;22055;0.000;0.000;2022-10-31T01:51:12;2.08;;;1.98;;
35975;SDS011;22055;0.000;0.000;2022-10-31T01:53:42;1.80;;;1.60;;
35975;SDS011;22055;0.000;0.000;2022-10-31T01:56:13;2.85;;;2.65;;
35975;SDS011;22055;0.000;0.000;2022-10-31T01:58:47;3.38;;;3.17;;
35975;SDS011;22055;0.000;0.000;2022-10-31T02:07:52;3.20;;;2.90;;
35975;SDS011;22055;0.000;0.000;2022-10-31T02:10:25;3.58;;;3.28;;
35975;SDS011;22055;0.000;0.000;2022-10-31T02:13:00;2.38;;;2.28;;
35975;SDS011;22055;0.000;0.000;2022-10-31T02:18:40;2.80;;;2.60;;
35975;SDS011;22055;0.000;0.000;2022-10-31T02:22:13;1.65;;;1.55;;
35975;SDS011;22055;0.000;0.000;2022-10-31T02:24:16;2.55;;;2.40;;
35975;SDS011;22055;0.000;0.000;2022-10-31T02:26:52;3.38;;;3.17;;
35975;SDS011;22055;0.000;0.000;2022-10-31T02:32:25;2.33;;;2.15;;
35975;SDS011;22055;0.000;0.000;2022-10-31T02:37:47;2.50;;;2.30;;
35975;SDS011;22055;0.000;0.000;2022-10-31T02:40:28;2.67;;;2.55;;
35975;SDS011;22055;0.000;0.000;2022-10-31T02:43:03;2.55;;;2.35;;
35975;SDS011;22055;0.000;0.000;2022-10-31T02:45:43;2.42;;;2.30;;
35975;SDS011;22055;0.000;0.000;2022-10-31T02:48:34;2.23;;;2.13;;
35975;SDS011;22055;0.000;0.000;2022-10-31T02:54:26;2.35;;;2.15;;
35975;SDS011;22055;0.000;0.000;2022-10-31T03:00:10;2.38;;;2.28;;
35975;SDS011;22055;0.000;0.000;2022-10-31T03:02:56;2.05;;;1.95;;
35975;SDS011;22055;0.000;0.000;2022-10-31T03:11:14;2.47;;;2.28;;
35975;SDS011;22055;0.000;0.000;2022-10-31T03:19:53;3.47;;;3.28;;
35975;SDS011;22055;0.000;0.000;2022-10-31T03:25:35;3.22;;;3.03;;
35975;SDS011;22055;0.000;0.000;2022-10-31T03:28:06;1.70;;;1.60;;
35975;SDS011;22055;0.000;0.000;2022-10-31T03:30:39;1.23;;;1.17;;
35975;SDS011;22055;0.000;0.000;2022-10-31T03:33:13;3.40;;;3.17;;
35975;SDS011;22055;0.000;0.000;2022-10-31T03:35:58;2.90;;;2.70;;
35975;SDS011;22055;0.000;0.000;2022-10-31T03:38:32;2.00;;;1.90;;
35975;SDS011;22055;0.000;0.000;2022-10-31T03:41:03;1.55;;;1.45;;
35975;SDS011;22055;0.000;0.000;2022-10-31T03:49:54;3.05;;;2.85;;
35975;SDS011;22055;0.000;0.000;2022-10-31T03:55:55;4.00;;;3.63;;
35975;SDS011;22055;0.000;0.000;2022-10-31T03:58:32;2.72;;;2.53;;
35975;SDS011;22055;0.000;0.000;2022-10-31T04:01:30;3.30;;;3.00;;
35975;SDS011;22055;0.000;0.000;2022-10-31T04:10:07;1.20;;;1.10;;
35975;SDS011;22055;0.000;0.000;2022-10-31T04:12:34;0.82;;;0.82;;
35975;SDS011;22055;0.000;0.000;2022-10-31T04:15:02;1.05;;;0.80;;
35975;SDS011;22055;0.000;0.000;2022-10-31T04:17:29;0.95;;;0.80;;
35975;SDS011;22055;0.000;0.000;2022-10-31T04:20:00;1.13;;;1.00;;
35975;SDS011;22055;0.000;0.000;2022-10-31T04:22:27;0.82;;;0.82;;
35975;SDS011;22055;0.000;0.000;2022-10-31T04:24:53;0.90;;;0.90;;
35975;SDS011;22055;0.000;0.000;2022-10-31T04:27:19;1.77;;;0.90;;
35975;SDS011;22055;0.000;0.000;2022-10-31T04:29:45;0.80;;;0.80;;
35975;SDS011;22055;0.000;0.000;2022-10-31T04:32:11;1.13;;;1.02;;
35975;SDS011;22055;0.000;0.000;2022-10-31T04:34:38;2.25;;;0.98;;
35975;SDS011;22055;0.000;0.000;2022-10-31T04:37:04;0.90;;;0.90;;
35975;SDS011;22055;0.000;0.000;2022-10-31T04:39:30;0.90;;;0.90;;
35975;SDS011;22055;0.000;0.000;2022-10-31T04:41:56;0.63;;;0.63;;
35975;SDS011;22055;0.000;0.000;2022-10-31T04:47:47;0.80;;;0.80;;
35975;SDS011;22055;0.000;0.000;2022-10-31T04:50:32;1.48;;;1.38;;
35975;SDS011;22055;0.000;0.000;2022-10-31T04:53:09;0.90;;;0.85;;
35975;SDS011;22055;0.000;0.000;2022-10-31T04:58:32;3.00;;;2.80;;
35975;SDS011;22055;0.000;0.000;2022-10-31T05:01:02;3.08;;;2.95;;
35975;SDS011;22055;0.000;0.000;2022-10-31T05:03:45;2.83;;;2.60;;
35975;SDS011;22055;0.000;0.000;2022-10-31T05:12:22;6.22;;;1.00;;
35975;SDS011;22055;0.000;0.000;2022-10-31T05:14:48;9.57;;;1.13;;
35975;SDS011;22055;0.000;0.000;2022-10-31T05:17:14;6.18;;;1.25;;
35975;SDS011;22055;0.000;0.000;2022-10-31T05:19:40;5.25;;;1.30;;
35975;SDS011;22055;0.000;0.000;2022-10-31T05:22:07;6.10;;;1.52;;
35975;SDS011;22055;0.000;0.000;2022-10-31T05:24:33;11.43;;;1.33;;
35975;SDS011;22055;0.000;0.000;2022-10-31T05:27:01;4.72;;;1.30;;
35975;SDS011;22055;0.000;0.000;2022-10-31T05:29:27;4.90;;;1.00;;
35975;SDS011;22055;0.000;0.000;2022-10-31T05:31:53;4.13;;;1.08;;
35975;SDS011;22055;0.000;0.000;2022-10-31T05:34:20;5.97;;;1.08;;
35975;SDS011;22055;0.000;0.000;2022-10-31T05:36:47;5.80;;;1.35;;
35975;SDS011;22055;0.000;0.000;2022-10-31T05:39:13;4.40;;;1.00;;
35975;SDS011;22055;0.000;0.000;2022-10-31T05:41:39;0.70;;;0.70;;
35975;SDS011;22055;0.000;0.000;2022-10-31T05:44:05;4.40;;;1.08;;
35975;SDS011;22055;0.000;0.000;2022-10-31T05:46:31;4.88;;;1.10;;
35975;SDS011;22055;0.000;0.000;2022-10-31T05:48:57;7.78;;;1.52;;
35975;SDS011;22055;0.000;0.000;2022-10-31T05:51:39;6.40;;;1.10;;
35975;SDS011;22055;0.000;0.000;2022-10-31T05:54:23;12.55;;;1.83;;
35975;SDS011;22055;0.000;0.000;2022-10-31T05:56:49;5.60;;;1.00;;
35975;SDS011;22055;0.000;0.000;2022-10-31T05:59:15;8.27;;;1.00;;
35975;SDS011;22055;0.000;0.000;2022-10-31T06:04:22;3.97;;;1.20;;
35975;SDS011;22055;0.000;0.000;2022-10-31T06:06:49;2.03;;;1.00;;
35975;SDS011;22055;0.000;0.000;2022-10-31T06:09:24;2.50;;;1.00;;
35975;SDS011;22055;0.000;0.000;2022-10-31T06:11:56;1.67;;;0.93;;
35975;SDS011;22055;0.000;0.000;2022-10-31T06:14:23;11.52;;;1.58;;
35975;SDS011;22055;0.000;0.000;2022-10-31T06:17:20;2.55;;;0.90;;
35975;SDS011;22055;0.000;0.000;2022-10-31T06:20:05;0.70;;;0.70;;
35975;SDS011;22055;0.000;0.000;2022-10-31T06:44:12;5.25;;;3.53;;
35975;SDS011;22055;0.000;0.000;2022-10-31T06:49:55;2.25;;;0.90;;
35975;SDS011;22055;0.000;0.000;2022-10-31T06:52:22;2.63;;;0.88;;
35975;SDS011;22055;0.000;0.000;2022-10-31T06:54:48;4.75;;;1.00;;
35975;SDS011;22055;0.000;0.000;2022-10-31T06:57:14;2.90;;;0.80;;
35975;SDS011;22055;0.000;0.000;2022-10-31T06:59:41;6.25;;;1.15;;
35975;SDS011;22055;0.000;0.000;2022-10-31T07:02:09;2.08;;;0.77;;
35975;SDS011;22055;0.000;0.000;2022-10-31T07:04:35;4.57;;;0.80;;
35975;SDS011;22055;0.000;0.000;2022-10-31T07:07:02;1.23;;;0.80;;
35975;SDS011;22055;0.000;0.000;2022-10-31T07:09:28;1.20;;;0.95;;
35975;SDS011;22055;0.000;0.000;2022-10-31T07:15:07;2.78;;;0.80;;
35975;SDS011;22055;0.000;0.000;2022-10-31T07:17:34;5.45;;;1.20;;
35975;SDS011;22055;0.000;0.000;2022-10-31T07:20:00;2.83;;;1.10;;
35975;SDS011;22055;0.000;0.000;2022-10-31T07:22:38;2.45;;;0.90;;
35975;SDS011;22055;0.000;0.000;2022-10-31T07:25:05;2.38;;;0.93;;
35975;SDS011;22055;0.000;0.000;2022-10-31T07:27:35;1.90;;;1.00;;
35975;SDS011;22055;0.000;0.000;2022-10-31T07:30:02;2.72;;;1.10;;
35975;SDS011;22055;0.000;0.000;2022-10-31T07:32:36;3.45;;;0.88;;
35975;SDS011;22055;0.000;0.000;2022-10-31T07:35:02;3.75;;;0.80;;
35975;SDS011;22055;0.000;0.000;2022-10-31T07:37:29;7.13;;;1.00;;
35975;SDS011;22055;0.000;0.000;2022-10-31T07:39:55;1.83;;;1.00;;
35975;SDS011;22055;0.000;0.000;2022-10-31T07:42:21;4.38;;;1.10;;
35975;SDS011;22055;0.000;0.000;2022-10-31T07:44:47;3.03;;;1.10;;
35975;SDS011;22055;0.000;0.000;2022-10-31T07:47:14;3.03;;;1.13;;
35975;SDS011;22055;0.000;0.000;2022-10-31T07:49:40;3.65;;;1.00;;
35975;SDS011;22055;0.000;0.000;2022-10-31T07:52:08;3.92;;;1.20;;
35975;SDS011;22055;0.000;0.000;2022-10-31T08:06:18;5.15;;;1.20;;
35975;SDS011;22055;0.000;0.000;2022-10-31T08:08:44;4.97;;;1.42;;
35975;SDS011;22055;0.000;0.000;2022-10-31T08:11:10;5.90;;;1.20;;
35975;SDS011;22055;0.000;0.000;2022-10-31T08:13:36;2.78;;;1.35;;
35975;SDS011;22055;0.000;0.000;2022-10-31T08:16:02;1.40;;;1.00;;
35975;SDS011;22055;0.000;0.000;2022-10-31T08:18:29;5.35;;;1.40;;
35975;SDS011;22055;0.000;0.000;2022-10-31T08:36:26;7.30;;;1.50;;
35975;SDS011;22055;0.000;0.000;2022-10-31T08:51:30;2.05;;;1.60;;
35975;SDS011;22055;0.000;0.000;2022-10-31T08:57:06;9.73;;;1.85;;
35975;SDS011;22055;0.000;0.000;2022-10-31T09:05:29;6.82;;;2.10;;
35975;SDS011;22055;0.000;0.000;2022-10-31T09:17:21;7.45;;;1.33;;
35975;SDS011;22055;0.000;0.000;2022-10-31T09:26:01;6.28;;;1.73;;
35975;SDS011;22055;0.000;0.000;2022-10-31T09:50:52;3.95;;;1.40;;
35975;SDS011;22055;0.000;0.000;2022-10-31T10:06:26;3.33;;;1.20;;
35975;SDS011;22055;0.000;0.000;2022-10-31T10:08:53;4.07;;;1.52;;
35975;SDS011;22055;0.000;0.000;2022-10-31T10:26:10;3.22;;;1.40;;
35975;SDS011;22055;0.000;0.000;2022-10-31T10:39:59;5.18;;;1.65;;
35975;SDS011;22055;0.000;0.000;2022-10-31T10:42:28;9.05;;;1.20;;
35975;SDS011;22055;0.000;0.000;2022-10-31T10:45:14;5.97;;;1.58;;
35975;SDS011;22055;0.000;0.000;2022-10-31T10:48:04;6.43;;;1.30;;
35975;SDS011;22055;0.000;0.000;2022-10-31T10:53:53;4.45;;;1.33;;
35975;SDS011;22055;0.000;0.000;2022-10-31T10:59:11;8.68;;;1.90;;
35975;SDS011;22055;0.000;0.000;2022-10-31T11:01:38;5.22;;;1.42;;
35975;SDS011;22055;0.000;0.000;2022-10-31T11:04:24;5.05;;;1.40;;
35975;SDS011;22055;0.000;0.000;2022-10-31T11:07:17;4.75;;;1.27;;
35975;SDS011;22055;0.000;0.000;2022-10-31T11:36:37;9.88;;;1.70;;
35975;SDS011;22055;0.000;0.000;2022-10-31T11:39:05;8.30;;;1.52;;
35975;SDS011;22055;0.000;0.000;2022-10-31T11:41:39;7.53;;;1.70;;
35975;SDS011;22055;0.000;0.000;2022-10-31T11:44:19;8.45;;;1.70;;
35975;SDS011;22055;0.000;0.000;2022-10-31T11:46:47;3.28;;;1.30;;
35975;SDS011;22055;0.000;0.000;2022-10-31T11:49:15;3.90;;;1.45;;
35975;SDS011;22055;0.000;0.000;2022-10-31T11:51:52;5.70;;;1.20;;
35975;SDS011;22055;0.000;0.000;2022-10-31T11:54:48;3.35;;;1.30;;
35975;SDS011;22055;0.000;0.000;2022-10-31T11:57:29;4.20;;;1.40;;
35975;SDS011;22055;0.000;0.000;2022-10-31T11:59:59;3.55;;;1.45;;
35975;SDS011;22055;0.000;0.000;2022-10-31T12:02:26;9.18;;;1.70;;
35975;SDS011;22055;0.000;0.000;2022-10-31T12:05:03;6.18;;;1.50;;
35975;SDS011;22055;0.000;0.000;2022-10-31T12:07:30;5.18;;;1.58;;
35975;SDS011;22055;0.000;0.000;2022-10-31T12:09:57;3.15;;;1.40;;
35975;SDS011;22055;0.000;0.000;2022-10-31T12:12:27;5.43;;;1.88;;
35975;SDS011;22055;0.000;0.000;2022-10-31T12:17:44;7.25;;;1.80;;
35975;SDS011;22055;0.000;0.000;2022-10-31T12:20:24;6.43;;;1.50;;
35975;SDS011;22055;0.000;0.000;2022-10-31T12:22:58;4.95;;;1.48;;
35975;SDS011;22055;0.000;0.000;2022-10-31T12:25:30;7.55;;;1.45;;
35975;SDS011;22055;0.000;0.000;2022-10-31T12:30:28;4.70;;;1.33;;
35975;SDS011;22055;0.000;0.000;2022-10-31T12:38:27;4.75;;;1.50;;
35975;SDS011;22055;0.000;0.000;2022-10-31T12:46:09;3.90;;;1.20;;
35975;SDS011;22055;0.000;0.000;2022-10-31T12:48:47;5.65;;;1.60;;
35975;SDS011;22055;0.000;0.000;2022-10-31T12:51:26;7.63;;;1.50;;
35975;SDS011;22055;0.000;0.000;2022-10-31T13:01:48;3.25;;;1.30;;
35975;SDS011;22055;0.000;0.000;2022-10-31T13:06:50;4.60;;;1.30;;
35975;SDS011;22055;0.000;0.000;2022-10-31T13:09:18;9.55;;;1.70;;
35975;SDS011;22055;0.000;0.000;2022-10-31T13:11:46;5.25;;;1.23;;
35975;SDS011;22055;0.000;0.000;2022-10-31T13:14:27;5.00;;;1.50;;
35975;SDS011;22055;0.000;0.000;2022-10-31T13:16:56;6.32;;;1.33;;
35975;SDS011;22055;0.000;0.000;2022-10-31T13:19:27;10.00;;;1.67;;
35975;SDS011;22055;0.000;0.000;2022-10-31T13:22:09;5.90;;;1.52;;
35975;SDS011;22055;0.000;0.000;2022-10-31T13:24:38;4.95;;;1.05;;
35975;SDS011;22055;0.000;0.000;2022-10-31T13:27:21;3.95;;;1.65;;
35975;SDS011;22055;0.000;0.000;2022-10-31T13:45:32;6.47;;;2.13;;
35975;SDS011;22055;0.000;0.000;2022-10-31T14:17:34;14.82;;;2.53;;
35975;SDS011;22055;0.000;0.000;2022-10-31T14:22:36;8.90;;;2.00;;
35975;SDS011;22055;0.000;0.000;2022-10-31T14:25:25;11.68;;;2.22;;
35975;SDS011;22055;0.000;0.000;2022-10-31T14:27:49;10.45;;;1.88;;
35975;SDS011;22055;0.000;0.000;2022-10-31T14:30:18;7.30;;;1.60;;
35975;SDS011;22055;0.000;0.000;2022-10-31T14:32:49;12.20;;;1.95;;
35975;SDS011;22055;0.000;0.000;2022-10-31T14:35:16;7.40;;;2.10;;
35975;SDS011;22055;0.000;0.000;2022-10-31T14:38:03;7.22;;;1.70;;
35975;SDS011;22055;0.000;0.000;2022-10-31T14:40:52;10.52;;;2.15;;
35975;SDS011;22055;0.000;0.000;2022-10-31T14:43:40;9.88;;;2.38;;
35975;SDS011;22055;0.000;0.000;2022-10-31T14:51:03;6.72;;;1.52;;
35975;SDS011;22055;0.000;0.000;2022-10-31T14:53:34;6.68;;;1.58;;
35975;SDS011;22055;0.000;0.000;2022-10-31T14:56:01;9.20;;;1.95;;
35975;SDS011;22055;0.000;0.000;2022-10-31T15:00:55;11.15;;;1.88;;
35975;SDS011;22055;0.000;0.000;2022-10-31T15:03:27;7.30;;;1.42;;
35975;SDS011;22055;0.000;0.000;2022-10-31T15:05:57;6.47;;;1.63;;
35975;SDS011;22055;0.000;0.000;2022-10-31T15:10:53;6.38;;;1.65;;
35975;SDS011;22055;0.000;0.000;2022-10-31T15:13:20;6.20;;;1.63;;
35975;SDS011;22055;0.000;0.000;2022-10-31T15:15:47;8.65;;;2.20;;
35975;SDS011;22055;0.000;0.000;2022-10-31T15:18:21;7.00;;;1.50;;
35975;SDS011;22055;0.000;0.000;2022-10-31T15:20:48;9.32;;;1.70;;
35975;SDS011;22055;0.000;0.000;2022-10-31T15:23:17;7.95;;;1.95;;
35975;SDS011;22055;0.000;0.000;2022-10-31T15:25:46;7.32;;;1.60;;
35975;SDS011;22055;0.000;0.000;2022-10-31T15:28:13;8.00;;;1.60;;
35975;SDS011;22055;0.000;0.000;2022-10-31T15:30:39;7.30;;;2.10;;
35975;SDS011;22055;0.000;0.000;2022-10-31T15:33:22;6.85;;;2.13;;
35975;SDS011;22055;0.000;0.000;2022-10-31T15:35:58;9.00;;;1.88;;
35975;SDS011;22055;0.000;0.000;2022-10-31T15:38:25;9.85;;;2.08;;
35975;SDS011;22055;0.000;0.000;2022-10-31T15:40:56;12.95;;;2.22;;
35975;SDS011;22055;0.000;0.000;2022-10-31T15:43:23;7.00;;;1.87;;
35975;SDS011;22055;0.000;0.000;2022-10-31T15:45:50;9.95;;;1.80;;
35975;SDS011;22055;0.000;0.000;2022-10-31T15:48:17;12.60;;;2.00;;
35975;SDS011;22055;0.000;0.000;2022-10-31T15:50:54;13.48;;;2.47;;
35975;SDS011;22055;0.000;0.000;2022-10-31T15:53:22;12.25;;;2.00;;
35975;SDS011;22055;0.000;0.000;2022-10-31T15:55:54;11.52;;;1.90;;
35975;SDS011;22055;0.000;0.000;2022-10-31T15:58:21;9.40;;;1.90;;
35975;SDS011;22055;0.000;0.000;2022-10-31T16:01:00;11.90;;;2.25;;
35975;SDS011;22055;0.000;0.000;2022-10-31T16:03:28;12.38;;;2.35;;
35975;SDS011;22055;0.000;0.000;2022-10-31T16:05:55;8.90;;;2.00;;
35975;SDS011;22055;0.000;0.000;2022-10-31T16:10:51;11.57;;;1.70;;
35975;SDS011;22055;0.000;0.000;2022-10-31T16:19:46;14.57;;;2.80;;
35975;SDS011;22055;0.000;0.000;2022-10-31T16:31:38;12.65;;;2.22;;
35975;SDS011;22055;0.000;0.000;2022-10-31T16:36:37;12.63;;;2.70;;
35975;SDS011;22055;0.000;0.000;2022-10-31T16:39:04;8.55;;;1.80;;
35975;SDS011;22055;0.000;0.000;2022-10-31T16:41:31;7.65;;;1.88;;
35975;SDS011;22055;0.000;0.000;2022-10-31T16:44:09;6.72;;;1.70;;
35975;SDS011;22055;0.000;0.000;2022-10-31T16:46:39;15.25;;;2.40;;
35975;SDS011;22055;0.000;0.000;2022-10-31T16:49:07;7.20;;;1.63;;
35975;SDS011;22055;0.000;0.000;2022-10-31T16:51:33;9.65;;;1.73;;
35975;SDS011;22055;0.000;0.000;2022-10-31T16:53:59;13.57;;;2.15;;
35975;SDS011;22055;0.000;0.000;2022-10-31T16:56:34;13.15;;;2.13;;
35975;SDS011;22055;0.000;0.000;2022-10-31T16:59:03;10.60;;;1.75;;
35975;SDS011;22055;0.000;0.000;2022-10-31T17:01:29;12.48;;;2.00;;
35975;SDS011;22055;0.000;0.000;2022-10-31T17:03:56;5.75;;;1.90;;
35975;SDS011;22055;0.000;0.000;2022-10-31T17:06:22;9.20;;;2.00;;
35975;SDS011;22055;0.000;0.000;2022-10-31T17:08:52;15.10;;;2.10;;
35975;SDS011;22055;0.000;0.000;2022-10-31T17:11:20;8.68;;;1.75;;
35975;SDS011;22055;0.000;0.000;2022-10-31T17:13:48;9.88;;;2.22;;
35975;SDS011;22055;0.000;0.000;2022-10-31T17:16:14;9.15;;;1.77;;
35975;SDS011;22055;0.000;0.000;2022-10-31T17:18:40;10.82;;;2.50;;
35975;SDS011;22055;0.000;0.000;2022-10-31T17:21:09;9.45;;;1.95;;
35975;SDS011;22055;0.000;0.000;2022-10-31T17:23:36;12.15;;;2.08;;
35975;SDS011;22055;0.000;0.000;2022-10-31T17:26:02;11.65;;;1.90;;
35975;SDS011;22055;0.000;0.000;2022-10-31T17:28:30;17.80;;;2.60;;
35975;SDS011;22055;0.000;0.000;2022-10-31T17:30:56;12.93;;;2.72;;
35975;SDS011;22055;0.000;0.000;2022-10-31T17:33:23;13.95;;;2.63;;
35975;SDS011;22055;0.000;0.000;2022-10-31T17:35:49;13.45;;;2.33;;
35975;SDS011;22055;0.000;0.000;2022-10-31T17:38:15;17.55;;;4.07;;
35975;SDS011;22055;0.000;0.000;2022-10-31T17:40:42;15.73;;;2.17;;
35975;SDS011;22055;0.000;0.000;2022-10-31T17:43:08;13.02;;;2.80;;
35975;SDS011;22055;0.000;0.000;2022-10-31T17:45:37;14.20;;;2.08;;
35975;SDS011;22055;0.000;0.000;2022-10-31T17:48:03;9.20;;;1.88;;
35975;SDS011;22055;0.000;0.000;2022-10-31T17:50:30;12.43;;;2.13;;
35975;SDS011;22055;0.000;0.000;2022-10-31T17:52:56;9.00;;;1.90;;
35975;SDS011;22055;0.000;0.000;2022-10-31T17:55:23;11.73;;;2.10;;
35975;SDS011;22055;0.000;0.000;2022-10-31T17:57:49;13.27;;;2.50;;
35975;SDS011;22055;0.000;0.000;2022-10-31T18:00:17;8.35;;;2.13;;
35975;SDS011;22055;0.000;0.000;2022-10-31T18:02:45;18.90;;;3.28;;
35975;SDS011;22055;0.000;0.000;2022-10-31T18:05:11;9.35;;;1.85;;
35975;SDS011;22055;0.000;0.000;2022-10-31T18:07:38;13.13;;;2.58;;
35975;SDS011;22055;0.000;0.000;2022-10-31T18:10:04;6.10;;;1.60;;
35975;SDS011;22055;0.000;0.000;2022-10-31T18:12:30;11.38;;;1.95;;
35975;SDS011;22055;0.000;0.000;2022-10-31T18:32:03;18.42;;;3.83;;
35975;SDS011;22055;0.000;0.000;2022-10-31T18:34:44;12.65;;;3.42;;
35975;SDS011;22055;0.000;0.000;2022-10-31T18:37:13;21.40;;;3.40;;
35975;SDS011;22055;0.000;0.000;2022-10-31T18:46:08;16.50;;;2.92;;
35975;SDS011;22055;0.000;0.000;2022-10-31T18:49:08;23.05;;;5.03;;
35975;SDS011;22055;0.000;0.000;2022-10-31T18:55:16;14.35;;;2.75;;
35975;SDS011;22055;0.000;0.000;2022-10-31T19:00:55;14.45;;;2.22;;
35975;SDS011;22055;0.000;0.000;2022-10-31T19:03:21;21.17;;;3.28;;
35975;SDS011;22055;0.000;0.000;2022-10-31T19:05:52;23.25;;;2.50;;
35975;SDS011;22055;0.000;0.000;2022-10-31T19:08:20;18.88;;;2.20;;
35975;SDS011;22055;0.000;0.000;2022-10-31T19:10:46;14.60;;;2.28;;
35975;SDS011;22055;0.000;0.000;2022-10-31T19:13:12;11.77;;;2.15;;
35975;SDS011;22055;0.000;0.000;2022-10-31T19:15:38;18.00;;;2.78;;
35975;SDS011;22055;0.000;0.000;2022-10-31T19:18:07;9.60;;;1.95;;
35975;SDS011;22055;0.000;0.000;2022-10-31T19:29:59;14.73;;;3.38;;
35975;SDS011;22055;0.000;0.000;2022-10-31T19:32:32;11.90;;;4.75;;
35975;SDS011;22055;0.000;0.000;2022-10-31T19:41:24;11.60;;;2.17;;
35975;SDS011;22055;0.000;0.000;2022-10-31T19:47:07;11.48;;;2.30;;
35975;SDS011;22055;0.000;0.000;2022-10-31T19:49:39;18.15;;;3.20;;
35975;SDS011;22055;0.000;0.000;2022-10-31T19:52:12;15.40;;;4.15;;
35975;SDS011;22055;0.000;0.000;2022-10-31T19:57:45;20.77;;;3.75;;
35975;SDS011;22055;0.000;0.000;2022-10-31T20:03:27;21.67;;;3.65;;
35975;SDS011;22055;0.000;0.000;2022-10-31T20:42:07;16.80;;;3.67;;
35975;SDS011;22055;0.000;0.000;2022-10-31T20:44:36;16.38;;;3.55;;
35975;SDS011;22055;0.000;0.000;2022-10-31T20:49:55;17.85;;;3.30;;
35975;SDS011;22055;0.000;0.000;2022-10-31T20:55:34;13.02;;;3.85;;
35975;SDS011;22055;0.000;0.000;2022-10-31T20:58:09;17.65;;;4.38;;
35975;SDS011;22055;0.000;0.000;2022-10-31T21:00:39;14.95;;;4.10;;
35975;SDS011;22055;0.000;0.000;2022-10-31T21:06:11;8.52;;;2.53;;
35975;SDS011;22055;0.000;0.000;2022-10-31T21:08:38;16.52;;;2.30;;
35975;SDS011;22055;0.000;0.000;2022-10-31T21:11:06;15.27;;;2.83;;
35975;SDS011;22055;0.000;0.000;2022-10-31T21:13:36;20.77;;;3.33;;
35975;SDS011;22055;0.000;0.000;2022-10-31T21:16:03;15.38;;;3.03;;
35975;SDS011;22055;0.000;0.000;2022-10-31T21:18:30;18.98;;;2.90;;
35975;SDS011;22055;0.000;0.000;2022-10-31T21:20:56;9.13;;;2.50;;
35975;SDS011;22055;0.000;0.000;2022-10-31T21:23:23;12.68;;;2.60;;
35975;SDS011;22055;0.000;0.000;2022-10-31T21:25:49;13.73;;;2.67;;
35975;SDS011;22055;0.000;0.000;2022-10-31T21:28:15;11.85;;;2.00;;
35975;SDS011;22055;0.000;0.000;2022-10-31T21:30:43;9.20;;;2.40;;
35975;SDS011;22055;0.000;0.000;2022-10-31T21:33:10;17.63;;;2.20;;
35975;SDS011;22055;0.000;0.000;2022-10-31T21:35:36;18.70;;;2.63;;
35975;SDS011;22055;0.000;0.000;2022-10-31T21:38:03;20.60;;;2.70;;
35975;SDS011;22055;0.000;0.000;2022-10-31T21:40:29;18.55;;;2.95;;
35975;SDS011;22055;0.000;0.000;2022-10-31T21:42:56;19.67;;;2.40;;
35975;SDS011;22055;0.000;0.000;2022-10-31T21:45:22;10.93;;;2.10;;
35975;SDS011;22055;0.000;0.000;2022-10-31T21:47:49;18.50;;;2.88;;
35975;SDS011;22055;0.000;0.000;2022-10-31T21:50:16;19.65;;;2.75;;
35975;SDS011;22055;0.000;0.000;2022-10-31T21:52:42;23.10;;;2.97;;
35975;SDS011;22055;0.000;0.000;2022-10-31T21:55:08;17.58;;;2.90;;
35975;SDS011;22055;0.000;0.000;2022-10-31T21:57:35;20.75;;;2.78;;
35975;SDS011;22055;0.000;0.000;2022-10-31T22:00:02;13.45;;;2.50;;
35975;SDS011;22055;0.000;0.000;2022-10-31T22:02:30;11.55;;;2.30;;
35975;SDS011;22055;0.000;0.000;2022-10-31T22:04:57;20.00;;;2.42;;
35975;SDS011;22055;0.000;0.000;2022-10-31T22:07:23;16.73;;;2.55;;
35975;SDS011;22055;0.000;0.000;2022-10-31T22:09:49;16.85;;;2.80;;
35975;SDS011;22055;0.000;0.000;2022-10-31T22:12:15;10.57;;;2.10;;
35975;SDS011;22055;0.000;0.000;2022-10-31T22:14:41;15.02;;;2.40;;
35975;SDS011;22055;0.000;0.000;2022-10-31T22:17:08;11.82;;;1.95;;
35975;SDS011;22055;0.000;0.000;2022-10-31T22:19:34;20.13;;;2.40;;
35975;SDS011;22055;0.000;0.000;2022-10-31T22:22:01;14.30;;;2.38;;
35975;SDS011;22055;0.000;0.000;2022-10-31T22:24:27;11.60;;;2.22;;
35975;SDS011;22055;0.000;0.000;2022-10-31T22:26:53;11.32;;;1.98;;
35975;SDS011;22055;0.000;0.000;2022-10-31T22:29:19;9.70;;;1.75;;
35975;SDS011;22055;0.000;0.000;2022-10-31T22:31:47;12.00;;;2.17;;
35975;SDS011;22055;0.000;0.000;2022-10-31T22:34:14;13.20;;;2.03;;
35975;SDS011;22055;0.000;0.000;2022-10-31T22:36:41;9.23;;;1.77;;
35975;SDS011;22055;0.000;0.000;2022-10-31T22:39:08;16.55;;;2.83;;
35975;SDS011;22055;0.000;0.000;2022-10-31T22:41:36;8.65;;;2.00;;
35975;SDS011;22055;0.000;0.000;2022-10-31T22:44:02;15.15;;;1.95;;
35975;SDS011;22055;0.000;0.000;2022-10-31T22:46:30;11.80;;;2.08;;
35975;SDS011;22055;0.000;0.000;2022-10-31T22:49:01;10.70;;;2.50;;
35975;SDS011;22055;0.000;0.000;2022-10-31T22:51:28;10.52;;;2.35;;
35975;SDS011;22055;0.000;0.000;2022-10-31T22:53:55;8.48;;;1.92;;
35975;SDS011;22055;0.000;0.000;2022-10-31T22:56:22;15.23;;;1.90;;
35975;SDS011;22055;0.000;0.000;2022-10-31T22:58:48;11.68;;;1.73;;
35975;SDS011;22055;0.000;0.000;2022-10-31T23:01:19;12.40;;;2.33;;
35975;SDS011;22055;0.000;0.000;2022-10-31T23:03:45;11.32;;;2.08;;
35975;SDS011;22055;0.000;0.000;2022-10-31T23:06:13;16.92;;;2.63;;
35975;SDS011;22055;0.000;0.000;2022-10-31T23:08:40;16.67;;;2.10;;
35975;SDS011;22055;0.000;0.000;2022-10-31T23:11:16;10.82;;;2.53;;
35975;SDS011;22055;0.000;0.000;2022-10-31T23:13:46;13.57;;;2.22;;
35975;SDS011;22055;0.000;0.000;2022-10-31T23:19:46;13.15;;;3.75;;
35975;SDS011;22055;0.000;0.000;2022-10-31T23:22:15;13.68;;;4.03;;
35975;SDS011;22055;0.000;0.000;2022-10-31T23:27:54;11.10;;;3.78;;
35975;SDS011;22055;0.000;0.000;2022-10-31T23:33:45;10.18;;;3.83;;
35975;SDS011;22055;0.000;0.000;2022-10-31T23:36:35;17.75;;;2.60;;